Time;durP1;ratioP1;P1;durP2;ratioP2;P2;SDS_P1;SDS_P2;PMS_P1;PMS_P2;Temp;Humidity;BMP_temperature;BMP_pressure;BME280_temperature;BME280_humidity;BME280_pressure;Samples;Min_cycle;Max_cycle;Signal;HPM_P1;HPM_P2
2022/11/04 00:01:54;;;;;;;10.85;3.13;;;15.90;85.10;;;;;;5033888;28;20026;-72
2022/11/04 00:04:21;;;;;;;8.32;2.78;;;15.90;85.20;;;;;;5033893;28;20033;-72
2022/11/04 00:06:46;;;;;;;9.73;2.40;;;15.90;85.10;;;;;;5033681;28;20067;-72
2022/11/04 00:09:21;;;;;;;11.73;2.47;;;16.00;85.10;;;;;;5052786;28;20025;-72
2022/11/04 00:14:31;;;;;;;7.28;2.65;;;15.90;85.00;;;;;;5053742;28;20181;-72
2022/11/04 00:30:47;;;;;;;13.55;2.75;;;15.90;85.10;;;;;;5053694;28;20569;-72
2022/11/04 00:33:24;;;;;;;13.35;2.65;;;15.90;85.10;;;;;;5054615;28;20115;-72
2022/11/04 00:35:51;;;;;;;9.43;2.38;;;15.90;85.10;;;;;;5054588;28;20036;-72
2022/11/04 00:38:17;;;;;;;12.15;2.53;;;15.90;85.10;;;;;;5053018;28;20044;-72
2022/11/04 00:40:42;;;;;;;5.63;2.35;;;15.90;85.20;;;;;;5052974;28;20452;-72
2022/11/04 00:43:08;;;;;;;12.25;2.50;;;15.90;85.20;;;;;;5053062;28;20028;-72
2022/11/04 00:45:34;;;;;;;12.45;3.00;;;15.90;85.30;;;;;;5041476;28;20022;-72
2022/11/04 00:47:59;;;;;;;10.30;2.15;;;15.90;85.30;;;;;;5034319;28;20476;-72
2022/11/04 00:50:25;;;;;;;8.18;2.40;;;15.90;85.30;;;;;;5034082;28;20022;-72
2022/11/04 00:52:50;;;;;;;12.07;2.35;;;15.90;85.30;;;;;;5032879;28;20021;-72
2022/11/04 00:55:16;;;;;;;9.82;2.67;;;15.90;85.40;;;;;;5033930;28;20050;-72
2022/11/04 00:57:42;;;;;;;7.43;2.55;;;15.90;85.40;;;;;;5034134;28;20061;-72
2022/11/04 01:00:08;;;;;;;9.73;2.83;;;15.90;85.40;;;;;;5034133;28;20033;-72
2022/11/04 01:02:34;;;;;;;8.18;2.70;;;15.90;85.40;;;;;;5033659;28;20476;-72
2022/11/04 01:04:59;;;;;;;9.85;2.53;;;15.90;85.40;;;;;;5032709;28;20025;-72
2022/11/04 01:07:25;;;;;;;7.60;2.40;;;15.90;85.40;;;;;;5037128;28;20017;-72
2022/11/04 01:09:50;;;;;;;6.25;2.08;;;15.90;85.40;;;;;;5052764;28;20057;-72
2022/11/04 01:12:16;;;;;;;10.27;3.00;;;15.90;85.50;;;;;;5052199;28;20103;-72
2022/11/04 01:14:42;;;;;;;9.30;2.58;;;15.90;85.50;;;;;;5053598;28;20135;-72
2022/11/04 01:17:07;;;;;;;5.78;2.38;;;15.90;85.50;;;;;;5035904;28;20074;-72
2022/11/04 01:19:33;;;;;;;6.60;2.42;;;15.90;85.50;;;;;;5053475;28;20670;-72
2022/11/04 01:21:59;;;;;;;5.75;2.15;;;15.90;85.50;;;;;;5053741;28;20033;-72
2022/11/04 01:24:24;;;;;;;12.18;2.80;;;15.90;85.40;;;;;;5052312;28;20028;-72
2022/11/04 01:26:50;;;;;;;8.13;2.35;;;15.90;85.50;;;;;;5051988;28;20021;-72
2022/11/04 01:29:16;;;;;;;12.90;2.80;;;15.90;85.60;;;;;;5053020;28;20399;-72
2022/11/04 01:31:41;;;;;;;9.25;2.10;;;15.90;85.60;;;;;;5053271;28;20415;-72
2022/11/04 01:34:07;;;;;;;8.07;2.30;;;15.90;85.60;;;;;;5052391;28;20032;-72
2022/11/04 01:36:33;;;;;;;8.63;2.00;;;15.90;85.60;;;;;;5053455;28;20024;-72
2022/11/04 01:38:59;;;;;;;4.45;2.10;;;15.90;85.60;;;;;;5035507;28;20021;-72
2022/11/04 01:41:29;;;;;;;8.35;2.03;;;15.90;85.70;;;;;;5051725;28;20104;-72
2022/11/04 01:43:59;;;;;;;9.68;2.42;;;15.90;85.60;;;;;;5052082;28;20109;-72
2022/11/04 01:46:37;;;;;;;11.63;2.70;;;15.90;85.70;;;;;;5033500;28;20037;-72
2022/11/04 01:49:22;;;;;;;8.10;2.60;;;15.90;85.70;;;;;;5033284;28;20020;-72
2022/11/04 01:51:48;;;;;;;6.50;1.85;;;15.90;85.70;;;;;;5032042;28;20436;-72
2022/11/04 01:54:14;;;;;;;8.00;2.22;;;15.90;85.70;;;;;;5031938;28;20087;-72
2022/11/04 01:56:40;;;;;;;6.65;1.80;;;15.90;85.70;;;;;;5031480;28;20458;-72
2022/11/04 01:59:08;;;;;;;9.85;2.13;;;15.90;85.70;;;;;;5032102;28;20097;-72
2022/11/04 02:01:33;;;;;;;9.27;2.20;;;15.90;85.60;;;;;;5031690;28;20075;-72
2022/11/04 02:06:48;;;;;;;11.02;2.28;;;15.90;85.60;;;;;;5031775;28;20494;-72
2022/11/04 02:09:14;;;;;;;5.75;2.30;;;15.90;85.60;;;;;;5034519;28;20024;-72
2022/11/04 02:14:24;;;;;;;6.72;2.08;;;15.90;85.50;;;;;;5052922;28;20406;-72
2022/11/04 02:16:50;;;;;;;8.52;2.10;;;15.90;85.50;;;;;;5052807;28;20456;-72
2022/11/04 02:19:23;;;;;;;11.80;2.05;;;15.90;85.50;;;;;;5051571;28;20455;-72
2022/11/04 02:22:07;;;;;;;6.15;1.75;;;15.80;85.50;;;;;;5051526;28;20029;-72
2022/11/04 02:24:42;;;;;;;7.28;1.88;;;15.90;85.40;;;;;;5052476;28;20029;-72
2022/11/04 02:27:20;;;;;;;6.28;1.90;;;15.80;85.40;;;;;;5051564;28;20028;-72
2022/11/04 02:30:06;;;;;;;9.05;2.35;;;15.80;85.40;;;;;;5035666;28;20028;-72
2022/11/04 02:32:54;;;;;;;12.95;2.22;;;15.80;85.20;;;;;;5051458;28;20107;-72
2022/11/04 02:35:54;;;;;;;7.68;1.75;;;15.80;85.30;;;;;;5052771;28;20045;-72
2022/11/04 02:38:29;;;;;;;8.57;1.65;;;15.80;85.40;;;;;;5050209;28;20079;-72
2022/11/04 02:41:03;;;;;;;6.22;2.10;;;15.80;85.20;;;;;;5034448;28;20032;-72
2022/11/04 02:43:45;;;;;;;11.65;2.67;;;15.80;85.30;;;;;;5037493;28;20044;-72
2022/11/04 02:46:15;;;;;;;7.00;2.10;;;15.80;85.20;;;;;;5033097;28;20040;-72
2022/11/04 02:48:48;;;;;;;12.38;2.28;;;15.80;85.20;;;;;;5019586;28;20026;-72
2022/11/04 02:51:31;;;;;;;8.75;2.30;;;15.70;85.10;;;;;;5017680;28;20026;-72
2022/11/04 02:54:05;;;;;;;15.15;2.92;;;15.70;85.00;;;;;;5017399;28;20018;-72
2022/11/04 02:56:31;;;;;;;15.40;3.03;;;15.70;85.20;;;;;;5049103;28;20045;-72
2022/11/04 02:59:01;;;;;;;19.45;2.15;;;15.70;85.10;;;;;;5037680;28;20021;-72
2022/11/04 03:01:29;;;;;;;13.90;2.78;;;15.70;85.10;;;;;;5037144;28;20040;-72
2022/11/04 03:03:59;;;;;;;12.82;1.95;;;15.70;85.20;;;;;;5037397;28;20051;-72
2022/11/04 03:06:25;;;;;;;9.68;2.08;;;15.70;85.10;;;;;;5037758;28;20501;-72
2022/11/04 03:08:51;;;;;;;10.18;1.98;;;15.70;85.10;;;;;;5033598;28;20041;-72
2022/11/04 03:11:22;;;;;;;10.60;3.08;;;15.70;85.10;;;;;;5017557;28;20068;-72
2022/11/04 03:14:09;;;;;;;11.43;2.05;;;15.80;85.10;;;;;;5017135;28;20022;-72
2022/11/04 03:16:44;;;;;;;14.50;3.00;;;15.80;85.00;;;;;;5034831;28;20025;-72
2022/11/04 03:19:29;;;;;;;20.27;2.75;;;15.80;85.10;;;;;;5032551;28;20032;-72
2022/11/04 03:22:01;;;;;;;14.73;2.95;;;15.80;85.10;;;;;;5054534;28;20028;-72
2022/11/04 03:24:26;;;;;;;12.65;2.33;;;15.80;85.20;;;;;;5038073;28;20052;-72
2022/11/04 03:26:59;;;;;;;14.15;2.90;;;15.70;85.10;;;;;;5037745;28;20055;-72
2022/11/04 03:29:36;;;;;;;11.63;2.50;;;15.70;85.10;;;;;;5038073;28;20029;-72
2022/11/04 03:32:30;;;;;;;12.75;2.75;;;15.70;85.10;;;;;;5038076;28;20526;-72
2022/11/04 03:34:55;;;;;;;16.35;2.70;;;15.80;85.10;;;;;;5055803;28;20029;-72
2022/11/04 03:37:21;;;;;;;13.15;2.05;;;15.80;85.20;;;;;;5054208;28;20025;-72
2022/11/04 03:39:47;;;;;;;10.10;2.42;;;15.80;85.20;;;;;;5037726;28;20032;-72
2022/11/04 03:42:18;;;;;;;12.85;2.30;;;15.80;85.20;;;;;;5054086;28;20440;-72
2022/11/04 03:44:49;;;;;;;12.60;2.13;;;15.80;85.20;;;;;;5032562;28;20373;-72
2022/11/04 03:47:14;;;;;;;8.98;2.20;;;15.80;85.20;;;;;;5017765;28;20355;-72
2022/11/04 03:49:40;;;;;;;11.15;2.72;;;15.70;85.20;;;;;;5017529;28;20029;-72
2022/11/04 03:52:06;;;;;;;11.98;2.65;;;15.80;85.20;;;;;;5017148;28;20029;-72
2022/11/04 03:54:34;;;;;;;10.50;2.70;;;15.80;85.20;;;;;;5033748;28;20083;-72
2022/11/04 03:57:06;;;;;;;12.18;2.08;;;15.70;85.20;;;;;;5017859;28;20561;-72
2022/11/04 04:00:02;;;;;;;16.75;2.83;;;15.80;85.30;;;;;;5035289;28;20210;-72
2022/11/04 04:03:02;;;;;;;15.98;2.70;;;15.80;85.20;;;;;;5019456;28;20060;-72
2022/11/04 04:05:54;;;;;;;10.80;1.98;;;15.80;85.30;;;;;;5035072;28;20021;-72
2022/11/04 04:08:39;;;;;;;10.10;2.22;;;15.70;85.20;;;;;;5043189;28;20033;-72
2022/11/04 04:11:18;;;;;;;6.97;2.30;;;15.80;85.20;;;;;;5053850;28;20021;-72
2022/11/04 04:14:37;;;;;;;12.35;2.33;;;15.70;85.20;;;;;;5053696;28;20050;-72
2022/11/04 04:17:23;;;;;;;10.15;1.80;;;15.70;85.20;;;;;;5054653;28;20033;-72
2022/11/04 04:19:54;;;;;;;8.80;2.10;;;15.70;85.30;;;;;;5052775;28;20068;-72
2022/11/04 04:22:27;;;;;;;11.60;2.60;;;15.70;85.30;;;;;;5037073;28;20116;-72
2022/11/04 04:27:39;;;;;;;8.27;1.77;;;15.70;85.20;;;;;;5039668;28;20078;-72
2022/11/04 04:30:12;;;;;;;6.47;1.92;;;15.70;85.20;;;;;;5036860;28;20029;-72
2022/11/04 04:32:45;;;;;;;11.73;2.63;;;15.70;85.20;;;;;;5021031;28;20475;-72
2022/11/04 04:44:58;;;;;;;8.30;1.52;;;15.70;85.20;;;;;;5039298;28;20048;-72
2022/11/04 04:46:31;;;;;;;9.18;1.55;;;15.70;85.40;;;;;;5037933;28;20467;-72
2022/11/04 04:49:06;;;;;;;12.35;2.30;;;15.70;85.40;;;;;;5035162;28;20116;-72
2022/11/04 04:51:31;;;;;;;10.77;2.97;;;15.70;85.30;;;;;;5035724;28;20029;-72
2022/11/04 04:53:57;;;;;;;9.50;1.98;;;15.70;85.20;;;;;;5035482;28;20036;-72
2022/11/04 04:56:23;;;;;;;9.75;2.40;;;15.70;85.40;;;;;;5034910;28;20076;-72
2022/11/04 04:58:48;;;;;;;11.02;2.58;;;15.70;85.40;;;;;;5051729;28;20175;-72
2022/11/04 05:01:14;;;;;;;8.35;1.63;;;15.70;86.30;;;;;;5035468;28;20505;-72
2022/11/04 05:03:39;;;;;;;11.75;2.40;;;15.70;85.30;;;;;;5050844;28;20047;-72
2022/11/04 05:06:05;;;;;;;10.32;2.05;;;15.70;85.30;;;;;;5034430;28;20058;-72
2022/11/04 05:08:31;;;;;;;6.93;1.63;;;15.70;85.40;;;;;;5045386;28;20085;-72
2022/11/04 05:10:58;;;;;;;10.30;2.15;;;15.70;85.40;;;;;;5035015;28;20033;-72
2022/11/04 05:13:28;;;;;;;7.80;2.25;;;15.70;85.30;;;;;;5034902;28;20048;-72
2022/11/04 05:15:53;;;;;;;8.85;1.67;;;15.70;85.40;;;;;;5051388;28;20511;-72
2022/11/04 05:18:19;;;;;;;9.02;1.15;;;15.70;85.30;;;;;;5031842;28;20072;-72
2022/11/04 05:20:45;;;;;;;6.55;1.48;;;15.70;85.30;;;;;;5033527;28;20032;-72
2022/11/04 05:23:12;;;;;;;11.57;2.45;;;15.70;85.10;;;;;;5035640;28;20056;-72
2022/11/04 05:25:38;;;;;;;8.35;1.90;;;15.70;85.20;;;;;;5048803;28;20025;-72
2022/11/04 05:28:04;;;;;;;12.13;1.80;;;15.70;85.20;;;;;;5035143;28;20113;-72
2022/11/04 05:30:30;;;;;;;12.57;2.03;;;15.70;85.20;;;;;;5051566;28;20051;-72
2022/11/04 05:32:56;;;;;;;6.47;1.65;;;15.70;85.20;;;;;;5052390;28;20112;-72
2022/11/04 05:35:21;;;;;;;8.43;1.65;;;15.70;85.20;;;;;;5051686;28;20114;-72
2022/11/04 05:37:47;;;;;;;9.63;1.60;;;15.70;85.30;;;;;;5052229;28;20032;-72
2022/11/04 05:40:13;;;;;;;9.93;1.70;;;15.70;85.20;;;;;;5051458;28;20032;-72
2022/11/04 05:42:39;;;;;;;4.93;1.33;;;15.70;85.40;;;;;;5051475;28;20035;-72
2022/11/04 05:45:05;;;;;;;8.40;1.77;;;15.70;85.40;;;;;;5042720;28;20033;-72
2022/11/04 05:47:30;;;;;;;9.48;1.38;;;15.70;85.30;;;;;;5031307;28;20025;-72
2022/11/04 05:49:56;;;;;;;8.05;1.67;;;15.80;85.20;;;;;;5032701;28;20076;-72
2022/11/04 05:52:21;;;;;;;8.90;1.50;;;15.80;85.30;;;;;;5031690;28;20095;-72
2022/11/04 05:54:47;;;;;;;8.20;1.80;;;15.70;85.20;;;;;;5032300;28;20037;-72
2022/11/04 05:57:13;;;;;;;15.05;1.67;;;15.70;85.20;;;;;;5032480;28;20503;-71
2022/11/04 05:59:38;;;;;;;6.15;1.27;;;15.70;85.30;;;;;;5031477;28;20052;-72
2022/11/04 06:02:04;;;;;;;10.48;1.77;;;15.70;85.20;;;;;;5031044;28;20033;-72
2022/11/04 06:04:29;;;;;;;10.07;1.60;;;15.70;85.30;;;;;;5032588;28;20026;-72
2022/11/04 06:06:55;;;;;;;10.50;1.83;;;15.70;85.30;;;;;;5031238;28;20030;-72
2022/11/04 06:09:37;;;;;;;7.10;1.73;;;15.70;85.20;;;;;;5051276;28;20025;-72
2022/11/04 06:12:07;;;;;;;9.87;1.40;;;15.70;85.30;;;;;;5051383;28;20071;-72
2022/11/04 06:14:33;;;;;;;7.55;1.42;;;15.70;85.30;;;;;;5052580;28;20017;-72
2022/11/04 06:16:59;;;;;;;8.77;1.55;;;15.70;85.30;;;;;;5050294;28;20040;-72
2022/11/04 06:19:25;;;;;;;9.20;2.85;;;15.70;85.40;;;;;;5052066;28;20029;-72
2022/11/04 06:21:51;;;;;;;8.77;1.60;;;15.70;85.20;;;;;;5052092;28;20392;-72
2022/11/04 06:24:16;;;;;;;7.20;1.40;;;15.70;85.10;;;;;;5050990;28;20029;-72
2022/11/04 06:26:42;;;;;;;7.53;1.35;;;15.70;85.30;;;;;;5052100;28;20048;-72
2022/11/04 06:29:08;;;;;;;3.75;1.35;;;15.70;85.20;;;;;;5050910;28;20035;-71
2022/11/04 06:31:34;;;;;;;7.43;1.77;;;15.70;85.20;;;;;;5050890;28;20116;-71
2022/11/04 06:34:00;;;;;;;5.50;1.63;;;15.70;85.10;;;;;;5050791;28;20060;-71
2022/11/04 06:36:26;;;;;;;8.27;1.58;;;15.70;85.20;;;;;;5051121;28;20045;-71
2022/11/04 06:38:51;;;;;;;7.22;1.27;;;15.70;85.20;;;;;;5051868;28;20060;-71
2022/11/04 06:41:17;;;;;;;5.40;1.40;;;15.70;85.20;;;;;;5052255;28;20021;-71
2022/11/04 06:43:43;;;;;;;4.20;1.25;;;15.70;85.20;;;;;;5050872;28;20662;-72
2022/11/04 06:46:27;;;;;;;7.00;1.60;;;15.70;85.20;;;;;;5034371;28;20395;-71
2022/11/04 06:48:54;;;;;;;10.35;1.55;;;15.70;85.20;;;;;;5031984;28;20021;-72
2022/11/04 06:51:20;;;;;;;5.38;1.52;;;15.70;85.30;;;;;;5030954;28;20021;-72
2022/11/04 06:53:45;;;;;;;7.03;1.33;;;15.70;85.20;;;;;;5014405;28;20040;-72
2022/11/04 06:56:11;;;;;;;4.15;1.50;;;15.70;85.30;;;;;;5030724;28;20041;-72
2022/11/04 06:58:37;;;;;;;8.25;1.27;;;15.70;85.30;;;;;;5030907;28;20487;-72
2022/11/04 07:01:02;;;;;;;6.68;1.40;;;15.70;85.30;;;;;;5030326;28;20422;-72
2022/11/04 07:03:28;;;;;;;5.25;1.30;;;15.70;86.40;;;;;;5030708;28;20029;-72
2022/11/04 07:05:54;;;;;;;6.97;1.60;;;15.70;85.40;;;;;;5030713;28;20030;-72
2022/11/04 07:08:20;;;;;;;5.47;1.20;;;15.70;85.40;;;;;;5042522;28;20037;-72
2022/11/04 07:10:45;;;;;;;9.73;1.48;;;15.70;85.50;;;;;;5050477;28;20479;-72
2022/11/04 07:13:11;;;;;;;7.50;1.30;;;15.70;85.50;;;;;;5033958;28;20116;-72
2022/11/04 07:15:38;;;;;;;6.35;1.45;;;15.70;85.50;;;;;;5051516;28;20032;-72
2022/11/04 07:18:05;;;;;;;4.13;1.10;;;15.70;85.50;;;;;;5050092;28;20035;-72
2022/11/04 07:20:32;;;;;;;6.75;1.25;;;15.70;85.50;;;;;;5050608;28;20021;-72
2022/11/04 07:22:57;;;;;;;6.13;1.33;;;15.70;85.50;;;;;;5051607;28;20039;-71
2022/11/04 07:25:23;;;;;;;8.55;1.40;;;15.70;85.60;;;;;;5051618;28;20014;-71
2022/11/04 07:27:49;;;;;;;6.97;1.33;;;15.70;85.40;;;;;;5051000;28;20032;-71
2022/11/04 07:30:15;;;;;;;6.80;1.48;;;15.70;85.30;;;;;;5053774;28;20021;-71
2022/11/04 07:32:40;;;;;;;5.45;1.30;;;15.70;85.30;;;;;;5039944;28;20068;-71
2022/11/04 07:35:06;;;;;;;5.53;1.60;;;15.70;85.20;;;;;;5033668;28;20112;-71
2022/11/04 07:37:32;;;;;;;8.18;1.52;;;15.70;85.10;;;;;;5032573;28;20159;-71
2022/11/04 07:39:58;;;;;;;3.53;1.17;;;15.70;85.00;;;;;;5033435;28;20032;-71
2022/11/04 07:42:23;;;;;;;8.27;1.65;;;15.70;85.10;;;;;;5032366;28;20446;-71
2022/11/04 07:44:49;;;;;;;4.72;1.23;;;15.60;84.80;;;;;;5039314;28;20025;-71
2022/11/04 07:47:14;;;;;;;5.75;1.10;;;15.70;84.90;;;;;;5033610;28;20021;-71
2022/11/04 07:49:40;;;;;;;8.25;1.48;;;15.60;84.80;;;;;;5033201;28;20021;-71
2022/11/04 07:52:06;;;;;;;35.97;3.35;;;15.60;84.70;;;;;;5034203;28;20113;-71
2022/11/04 07:54:31;;;;;;;26.98;3.50;;;15.60;84.70;;;;;;5033670;28;20029;-71
2022/11/04 07:56:57;;;;;;;21.40;3.00;;;15.60;84.90;;;;;;5033288;28;20053;-71
2022/11/04 07:59:23;;;;;;;19.45;2.55;;;15.60;84.90;;;;;;5033167;28;20112;-71
2022/11/04 08:01:48;;;;;;;17.40;3.03;;;15.60;84.90;;;;;;5034788;28;20104;-71
2022/11/04 08:04:14;;;;;;;22.42;3.42;;;15.60;85.00;;;;;;5034597;28;20502;-71
2022/11/04 08:06:39;;;;;;;16.40;2.65;;;15.60;85.00;;;;;;5034589;28;20028;-71
2022/11/04 08:09:05;;;;;;;17.17;3.90;;;15.60;86.00;;;;;;5040367;28;20021;-71
2022/11/04 08:11:31;;;;;;;22.88;3.55;;;15.60;85.00;;;;;;5049091;28;20021;-71
2022/11/04 08:13:56;;;;;;;21.67;2.83;;;15.60;85.00;;;;;;5034465;28;20038;-71
2022/11/04 08:16:23;;;;;;;22.63;4.15;;;15.60;85.00;;;;;;5042757;28;20025;-71
2022/11/04 08:18:51;;;;;;;19.70;3.13;;;15.70;85.10;;;;;;5053021;28;20079;-71
2022/11/04 08:21:17;;;;;;;23.02;3.28;;;15.60;85.00;;;;;;5052904;28;20032;-71
2022/11/04 08:23:43;;;;;;;16.80;3.13;;;15.60;85.00;;;;;;5052872;28;20029;-71
2022/11/04 08:26:10;;;;;;;15.95;3.38;;;15.60;85.10;;;;;;5017388;28;20384;-71
2022/11/04 08:28:36;;;;;;;22.10;3.72;;;15.60;85.10;;;;;;5033002;28;20021;-71
2022/11/04 08:31:29;;;;;;;14.68;3.35;;;15.60;85.00;;;;;;5032696;28;20021;-71
2022/11/04 08:33:54;;;;;;;;;;;15.60;85.10;;;;;;5033366;28;20045;-71
2022/11/04 08:36:28;;;;;;;20.88;3.15;;;15.60;85.00;;;;;;5033880;28;19909;-71
2022/11/04 08:38:54;;;;;;;11.80;3.17;;;15.60;85.20;;;;;;5032474;28;20021;-71
2022/11/04 08:41:23;;;;;;;16.48;3.33;;;15.60;85.00;;;;;;5035889;28;20036;-71
2022/11/04 08:43:49;;;;;;;16.77;2.80;;;15.60;85.20;;;;;;5036077;28;20566;-71
2022/11/04 08:46:15;;;;;;;21.83;3.85;;;15.60;85.10;;;;;;5034256;28;20109;-71
2022/11/04 08:48:40;;;;;;;24.60;4.45;;;15.60;85.00;;;;;;5032584;28;20488;-71
2022/11/04 08:51:33;;;;;;;22.10;4.18;;;15.60;85.10;;;;;;5032467;28;20476;-71
2022/11/04 08:53:59;;;;;;;16.10;3.30;;;15.60;85.00;;;;;;5032467;28;20046;-71
2022/11/04 08:56:29;;;;;;;17.20;3.22;;;15.60;85.00;;;;;;5031989;28;20060;-71
2022/11/04 08:58:57;;;;;;;12.30;2.85;;;15.60;85.10;;;;;;5032454;28;20026;-71
2022/11/04 09:01:22;;;;;;;17.75;3.95;;;15.60;85.00;;;;;;5032317;28;20030;-71
2022/11/04 09:03:48;;;;;;;13.90;3.60;;;15.60;85.00;;;;;;5032276;28;20124;-71
2022/11/04 09:06:18;;;;;;;19.25;4.03;;;15.60;85.00;;;;;;5031943;28;20030;-71
2022/11/04 09:08:43;;;;;;;14.50;2.72;;;15.60;85.00;;;;;;5032091;28;20036;-71
2022/11/04 09:11:11;;;;;;;12.73;2.47;;;15.60;85.00;;;;;;5031979;28;20396;-71
2022/11/04 09:13:37;;;;;;;14.43;2.85;;;15.60;85.00;;;;;;5015563;28;20036;-71
2022/11/04 09:16:03;;;;;;;20.45;3.55;;;15.60;85.00;;;;;;5039749;28;20029;-71
2022/11/04 09:18:29;;;;;;;14.10;3.53;;;15.60;85.00;;;;;;5035244;28;20059;-71
2022/11/04 09:20:54;;;;;;;16.65;3.60;;;15.60;85.00;;;;;;5051906;28;20039;-71
2022/11/04 09:23:20;;;;;;;13.98;3.25;;;15.60;85.00;;;;;;5052948;28;20021;-71
2022/11/04 09:25:46;;;;;;;8.68;2.35;;;15.60;85.00;;;;;;5051493;28;20025;-71
2022/11/04 09:28:11;;;;;;;16.98;2.90;;;15.50;84.90;;;;;;5053037;28;20029;-71
2022/11/04 09:30:37;;;;;;;17.60;3.03;;;15.60;85.00;;;;;;5053029;28;20025;-71
2022/11/04 09:33:03;;;;;;;9.30;2.63;;;15.60;85.00;;;;;;5051750;28;20083;-71
2022/11/04 09:35:28;;;;;;;14.48;3.08;;;15.50;84.90;;;;;;5051644;28;20444;-71
2022/11/04 09:37:54;;;;;;;15.00;2.80;;;15.50;84.90;;;;;;5051755;28;20048;-71
2022/11/04 09:40:22;;;;;;;12.55;2.50;;;15.50;84.90;;;;;;5034779;28;20053;-71
2022/11/04 09:43:09;;;;;;;19.15;3.40;;;15.50;85.00;;;;;;5035032;28;20025;-71
2022/11/04 09:45:38;;;;;;;12.20;2.85;;;15.50;84.90;;;;;;5036595;28;20021;-71
2022/11/04 09:48:06;;;;;;;15.85;3.70;;;15.50;84.90;;;;;;5051381;28;20024;-71
2022/11/04 09:50:40;;;;;;;12.30;2.95;;;15.50;84.90;;;;;;5050817;28;20025;-71
2022/11/04 09:53:20;;;;;;;15.00;2.60;;;15.50;84.90;;;;;;5035375;28;20027;-71
2022/11/04 09:55:57;;;;;;;12.38;2.58;;;15.50;84.80;;;;;;5035278;28;20075;-71
2022/11/04 09:58:23;;;;;;;10.95;2.33;;;15.50;84.80;;;;;;5035269;28;20025;-71
2022/11/04 10:01:02;;;;;;;18.05;3.03;;;15.50;84.90;;;;;;5051262;28;20544;-71
2022/11/04 10:03:31;;;;;;;16.70;3.15;;;15.50;84.80;;;;;;5034824;28;20048;-71
2022/11/04 10:06:07;;;;;;;14.77;2.88;;;15.50;84.80;;;;;;5052536;28;20031;-71
2022/11/04 10:09:02;;;;;;;10.98;2.40;;;15.50;84.80;;;;;;5023417;28;20394;-71
2022/11/04 10:11:34;;;;;;;9.43;2.30;;;15.50;84.80;;;;;;5031387;28;20048;-71
2022/11/04 10:14:31;;;;;;;11.00;2.63;;;15.50;84.70;;;;;;5031251;28;20017;-71
2022/11/04 10:16:57;;;;;;;11.88;2.70;;;15.50;84.70;;;;;;5046551;28;20059;-71
2022/11/04 10:19:38;;;;;;;10.35;2.60;;;15.40;84.60;;;;;;5052036;28;20056;-71
2022/11/04 10:22:09;;;;;;;9.30;2.15;;;15.50;84.70;;;;;;5052029;28;20068;-71
2022/11/04 10:24:55;;;;;;;12.63;2.33;;;15.40;84.70;;;;;;5034242;28;20372;-71
2022/11/04 10:27:26;;;;;;;11.13;2.63;;;15.40;84.70;;;;;;5036189;28;20048;-71
2022/11/04 10:30:00;;;;;;;10.65;2.45;;;15.40;84.60;;;;;;5018065;28;20052;-71
2022/11/04 10:32:36;;;;;;;8.82;2.53;;;15.50;84.70;;;;;;5034556;28;20040;-71
2022/11/04 10:35:05;;;;;;;12.50;2.65;;;15.50;84.70;;;;;;5034365;28;20108;-71
2022/11/04 10:37:30;;;;;;;8.70;2.63;;;15.50;84.70;;;;;;5034267;28;20021;-71
2022/11/04 10:40:19;;;;;;;13.00;2.08;;;15.40;84.60;;;;;;5050974;28;20032;-71
2022/11/04 10:42:45;;;;;;;13.35;2.75;;;15.40;84.50;;;;;;5046757;28;20037;-71
2022/11/04 10:45:11;;;;;;;11.77;2.53;;;15.40;84.70;;;;;;5051926;28;20021;-71
2022/11/04 10:47:37;;;;;;;12.40;2.63;;;15.50;84.70;;;;;;5050764;28;20029;-71
2022/11/04 10:50:23;;;;;;;10.18;2.88;;;15.40;85.70;;;;;;5051891;28;20047;-71
2022/11/04 10:52:48;;;;;;;8.82;1.92;;;15.50;84.70;;;;;;5035516;28;20029;-71
2022/11/04 10:55:25;;;;;;;8.85;2.00;;;15.40;84.70;;;;;;5051545;28;20364;-71
2022/11/04 10:57:55;;;;;;;8.20;2.35;;;15.40;84.70;;;;;;5035421;28;20032;-71
2022/11/04 11:00:39;;;;;;;7.97;1.90;;;15.50;85.10;;;;;;5050678;28;20025;-71
2022/11/04 11:03:30;;;;;;;11.20;2.72;;;15.40;85.70;;;;;;5036951;28;20049;-71
2022/11/04 11:06:09;;;;;;;13.63;2.38;;;15.40;84.60;;;;;;5051609;28;20163;-71
2022/11/04 11:08:36;;;;;;;14.50;2.45;;;15.40;84.70;;;;;;5043173;28;20396;-71
2022/11/04 11:11:02;;;;;;;6.82;2.28;;;15.40;84.60;;;;;;5034452;28;20503;-71
2022/11/04 11:13:34;;;;;;;9.65;2.08;;;15.40;84.60;;;;;;5034335;28;20029;-71
2022/11/04 11:16:16;;;;;;;11.85;2.10;;;15.40;84.70;;;;;;5042033;28;20175;-71
2022/11/04 11:18:41;;;;;;;11.60;2.95;;;15.40;84.70;;;;;;5054415;28;20029;-71
2022/11/04 11:21:10;;;;;;;8.43;2.08;;;15.40;84.60;;;;;;5054039;28;20029;-71
2022/11/04 11:23:43;;;;;;;6.72;1.95;;;15.40;84.70;;;;;;5037640;28;20152;-71
2022/11/04 11:26:13;;;;;;;7.93;2.10;;;15.40;84.60;;;;;;5055167;28;20025;-71
2022/11/04 11:28:39;;;;;;;8.90;2.17;;;15.40;84.60;;;;;;5037935;28;20032;-71
2022/11/04 11:31:10;;;;;;;8.98;2.03;;;15.40;84.60;;;;;;5037660;28;20013;-71
2022/11/04 11:33:45;;;;;;;10.98;2.45;;;15.40;84.70;;;;;;5037917;28;20040;-71
2022/11/04 11:36:31;;;;;;;8.00;2.15;;;15.40;84.70;;;;;;5038012;28;20069;-71
2022/11/04 11:39:04;;;;;;;8.68;2.10;;;15.40;84.70;;;;;;5053437;28;20029;-71
2022/11/04 11:41:32;;;;;;;7.78;2.20;;;15.40;84.70;;;;;;5053913;28;20031;-71
2022/11/04 11:44:27;;;;;;;6.40;2.03;;;15.40;84.70;;;;;;5037488;28;20029;-71
2022/11/04 11:46:54;;;;;;;8.77;1.88;;;15.40;84.70;;;;;;5051502;28;20600;-71
2022/11/04 11:49:33;;;;;;;7.40;2.00;;;15.40;84.80;;;;;;5036867;28;20558;-71
2022/11/04 11:52:30;;;;;;;6.55;2.05;;;15.40;84.70;;;;;;5038242;28;20025;-71
2022/11/04 11:55:11;;;;;;;10.15;2.13;;;15.40;84.70;;;;;;5054740;28;20414;-71
2022/11/04 11:57:55;;;;;;;7.57;1.50;;;15.40;84.70;;;;;;5038584;28;20044;-71
2022/11/04 12:00:27;;;;;;;5.95;1.80;;;15.40;84.80;;;;;;5054517;28;20025;-71
2022/11/04 12:03:12;;;;;;;10.27;2.42;;;15.40;84.70;;;;;;5053380;28;20025;-71
2022/11/04 12:06:16;;;;;;;6.28;1.77;;;15.40;84.80;;;;;;5054229;28;20044;-71
2022/11/04 12:09:07;;;;;;;7.03;1.58;;;15.40;84.80;;;;;;5040128;28;20026;-71
2022/11/04 12:11:41;;;;;;;8.27;1.95;;;15.40;84.70;;;;;;5032118;28;20531;-71
2022/11/04 12:14:27;;;;;;;10.88;2.03;;;15.40;84.80;;;;;;5015203;28;20025;-71
2022/11/04 12:16:57;;;;;;;6.30;1.70;;;15.40;85.30;;;;;;5031782;28;20072;-71
2022/11/04 12:19:45;;;;;;;4.68;1.48;;;15.40;84.80;;;;;;5035094;28;20033;-71
2022/11/04 12:22:32;;;;;;;8.60;1.88;;;15.40;84.80;;;;;;5035427;28;20021;-71
2022/11/04 12:25:07;;;;;;;7.13;2.47;;;15.40;84.90;;;;;;5035278;28;20033;-71
2022/11/04 12:27:55;;;;;;;9.45;1.85;;;15.40;84.90;;;;;;5035039;28;20017;-71
2022/11/04 12:30:24;;;;;;;5.82;1.75;;;15.40;84.90;;;;;;5037682;28;20041;-71
2022/11/04 12:32:52;;;;;;;4.97;1.77;;;15.40;84.90;;;;;;5018759;28;20029;-71
2022/11/04 12:35:42;;;;;;;7.82;1.92;;;15.40;85.00;;;;;;5051720;28;20442;-71
2022/11/04 12:38:23;;;;;;;8.48;1.70;;;15.40;84.90;;;;;;5035123;28;20025;-71
2022/11/04 12:40:51;;;;;;;6.30;2.55;;;15.40;84.90;;;;;;5035094;28;20499;-71
2022/11/04 12:43:32;;;;;;;5.10;1.48;;;15.40;84.90;;;;;;5032588;28;20087;-71
2022/11/04 12:46:26;;;;;;;8.13;1.88;;;15.40;84.90;;;;;;5032624;28;20025;-71
2022/11/04 12:49:00;;;;;;;4.55;1.80;;;15.40;84.90;;;;;;5032637;28;20033;-71
2022/11/04 12:52:13;;;;;;;7.38;2.22;;;15.40;84.90;;;;;;5033740;28;20108;-71
2022/11/04 12:54:45;;;;;;;12.38;1.67;;;15.40;84.90;;;;;;5032140;28;20062;-71
2022/11/04 12:57:27;;;;;;;5.53;1.40;;;15.40;85.00;;;;;;5033371;28;20053;-71
2022/11/04 12:59:59;;;;;;;7.45;1.90;;;15.40;84.90;;;;;;5016651;28;20026;-71
2022/11/04 13:02:34;;;;;;;8.10;1.98;;;15.40;84.90;;;;;;5033364;28;20056;-71
2022/11/04 13:05:23;;;;;;;7.93;2.08;;;15.40;84.90;;;;;;5017047;28;20024;-71
2022/11/04 13:07:56;;;;;;;8.45;2.08;;;15.40;84.90;;;;;;5017529;28;20069;-71
2022/11/04 13:10:38;;;;;;;8.13;1.85;;;15.40;84.90;;;;;;5014685;28;20044;-71
2022/11/04 13:13:04;;;;;;;8.20;2.00;;;15.40;84.90;;;;;;5014878;28;20064;-71
2022/11/04 13:15:31;;;;;;;9.13;1.65;;;15.40;84.90;;;;;;5014611;28;20029;-71
2022/11/04 13:18:02;;;;;;;8.98;2.38;;;15.40;84.90;;;;;;4998388;28;20120;-71
2022/11/04 13:20:38;;;;;;;7.68;1.73;;;15.40;85.00;;;;;;4998564;28;20507;-71
2022/11/04 13:23:04;;;;;;;7.30;1.73;;;15.40;84.90;;;;;;5014367;28;20507;-71
2022/11/04 13:25:35;;;;;;;7.35;2.13;;;15.40;84.90;;;;;;4997125;28;20033;-71
2022/11/04 13:28:01;;;;;;;5.60;1.40;;;15.40;84.90;;;;;;5014934;28;20041;-71
2022/11/04 13:30:36;;;;;;;8.68;1.80;;;15.40;84.90;;;;;;4998091;28;20037;-71
2022/11/04 13:33:24;;;;;;;8.63;1.80;;;15.40;84.90;;;;;;5014564;28;20064;-71
2022/11/04 13:36:09;;;;;;;7.03;2.42;;;15.40;84.90;;;;;;5014397;28;20021;-71
2022/11/04 13:38:43;;;;;;;6.13;1.40;;;15.40;84.90;;;;;;4998005;28;20041;-71